sensor_id;sensor_type;location;lat;lon;timestamp;P1;durP1;ratioP1;P2;durP2;ratioP2
27265;SDS011;14766;51.380;13.762;2022-07-03T00:00:26;1.67;;;1.58;;
27265;SDS011;14766;51.380;13.762;2022-07-03T00:02:54;2.00;;;1.60;;
27265;SDS011;14766;51.380;13.762;2022-07-03T00:05:21;2.88;;;1.80;;
27265;SDS011;14766;51.380;13.762;2022-07-03T00:07:48;2.00;;;1.80;;
27265;SDS011;14766;51.380;13.762;2022-07-03T00:10:16;2.30;;;2.10;;
27265;SDS011;14766;51.380;13.762;2022-07-03T00:12:44;2.10;;;1.90;;
27265;SDS011;14766;51.380;13.762;2022-07-03T00:15:12;2.28;;;2.08;;
27265;SDS011;14766;51.380;13.762;2022-07-03T00:17:39;2.22;;;2.00;;
27265;SDS011;14766;51.380;13.762;2022-07-03T00:20:07;2.55;;;2.20;;
27265;SDS011;14766;51.380;13.762;2022-07-03T00:22:36;2.00;;;1.70;;
27265;SDS011;14766;51.380;13.762;2022-07-03T00:25:07;2.30;;;1.58;;
27265;SDS011;14766;51.380;13.762;2022-07-03T00:27:36;2.17;;;1.60;;
27265;SDS011;14766;51.380;13.762;2022-07-03T00:30:05;2.38;;;1.92;;
27265;SDS011;14766;51.380;13.762;2022-07-03T00:32:37;2.40;;;2.08;;
27265;SDS011;14766;51.380;13.762;2022-07-03T00:35:06;2.47;;;2.08;;
27265;SDS011;14766;51.380;13.762;2022-07-03T00:37:35;2.00;;;1.80;;
27265;SDS011;14766;51.380;13.762;2022-07-03T00:40:02;2.90;;;2.20;;
27265;SDS011;14766;51.380;13.762;2022-07-03T00:42:30;2.40;;;2.20;;
27265;SDS011;14766;51.380;13.762;2022-07-03T00:44:58;2.30;;;1.70;;
27265;SDS011;14766;51.380;13.762;2022-07-03T00:47:27;2.10;;;1.90;;
27265;SDS011;14766;51.380;13.762;2022-07-03T00:49:55;1.95;;;1.80;;
27265;SDS011;14766;51.380;13.762;2022-07-03T00:52:26;2.22;;;2.00;;
27265;SDS011;14766;51.380;13.762;2022-07-03T00:54:57;3.33;;;2.03;;
27265;SDS011;14766;51.380;13.762;2022-07-03T00:57:28;1.67;;;1.58;;
27265;SDS011;14766;51.380;13.762;2022-07-03T00:59:57;2.75;;;2.03;;
27265;SDS011;14766;51.380;13.762;2022-07-03T01:02:44;2.10;;;1.90;;
27265;SDS011;14766;51.380;13.762;2022-07-03T01:13:37;2.20;;;1.80;;
27265;SDS011;14766;51.380;13.762;2022-07-03T01:16:59;2.08;;;1.80;;
27265;SDS011;14766;51.380;13.762;2022-07-03T01:27:57;2.13;;;1.92;;
27265;SDS011;14766;51.380;13.762;2022-07-03T01:30:29;2.20;;;1.85;;
27265;SDS011;14766;51.380;13.762;2022-07-03T01:33:06;2.90;;;1.98;;
27265;SDS011;14766;51.380;13.762;2022-07-03T01:36:05;2.40;;;2.20;;
27265;SDS011;14766;51.380;13.762;2022-07-03T01:38:36;2.08;;;1.88;;
27265;SDS011;14766;51.380;13.762;2022-07-03T01:41:05;2.85;;;1.88;;
27265;SDS011;14766;51.380;13.762;2022-07-03T01:43:44;2.25;;;2.05;;
27265;SDS011;14766;51.380;13.762;2022-07-03T01:46:13;3.80;;;2.38;;
27265;SDS011;14766;51.380;13.762;2022-07-03T01:48:44;2.28;;;2.08;;
27265;SDS011;14766;51.380;13.762;2022-07-03T01:51:15;1.90;;;1.80;;
27265;SDS011;14766;51.380;13.762;2022-07-03T01:53:44;2.10;;;1.90;;
27265;SDS011;14766;51.380;13.762;2022-07-03T01:56:16;2.53;;;1.92;;
27265;SDS011;14766;51.380;13.762;2022-07-03T01:58:44;2.10;;;1.90;;
27265;SDS011;14766;51.380;13.762;2022-07-03T02:06:39;2.28;;;2.08;;
27265;SDS011;14766;51.380;13.762;2022-07-03T02:09:11;2.22;;;2.03;;
27265;SDS011;14766;51.380;13.762;2022-07-03T02:11:58;2.70;;;2.45;;
27265;SDS011;14766;51.380;13.762;2022-07-03T02:14:31;2.88;;;2.15;;
27265;SDS011;14766;51.380;13.762;2022-07-03T02:17:21;5.65;;;2.20;;
27265;SDS011;14766;51.380;13.762;2022-07-03T02:19:54;2.88;;;1.85;;
27265;SDS011;14766;51.380;13.762;2022-07-03T02:22:27;2.20;;;2.00;;
27265;SDS011;14766;51.380;13.762;2022-07-03T02:25:04;3.28;;;1.90;;
27265;SDS011;14766;51.380;13.762;2022-07-03T02:27:39;2.17;;;1.98;;
27265;SDS011;14766;51.380;13.762;2022-07-03T02:30:16;2.28;;;2.00;;
27265;SDS011;14766;51.380;13.762;2022-07-03T02:32:49;2.22;;;1.80;;
27265;SDS011;14766;51.380;13.762;2022-07-03T02:35:23;2.17;;;2.00;;
27265;SDS011;14766;51.380;13.762;2022-07-03T02:40:39;3.33;;;2.00;;
27265;SDS011;14766;51.380;13.762;2022-07-03T02:43:36;2.17;;;1.98;;
27265;SDS011;14766;51.380;13.762;2022-07-03T02:52:24;2.35;;;2.15;;
27265;SDS011;14766;51.380;13.762;2022-07-03T02:55:02;2.75;;;2.47;;
27265;SDS011;14766;51.380;13.762;2022-07-03T02:57:38;1.95;;;1.85;;
27265;SDS011;14766;51.380;13.762;2022-07-03T03:00:08;2.40;;;2.20;;
27265;SDS011;14766;51.380;13.762;2022-07-03T03:05:26;3.97;;;2.53;;
27265;SDS011;14766;51.380;13.762;2022-07-03T03:10:59;2.58;;;2.38;;
27265;SDS011;14766;51.380;13.762;2022-07-03T03:13:33;4.05;;;2.35;;
27265;SDS011;14766;51.380;13.762;2022-07-03T03:16:05;2.53;;;2.33;;
27265;SDS011;14766;51.380;13.762;2022-07-03T03:18:36;3.20;;;2.38;;
27265;SDS011;14766;51.380;13.762;2022-07-03T03:21:06;2.78;;;2.30;;
27265;SDS011;14766;51.380;13.762;2022-07-03T03:23:48;3.15;;;2.35;;
27265;SDS011;14766;51.380;13.762;2022-07-03T03:26:19;2.92;;;2.28;;
27265;SDS011;14766;51.380;13.762;2022-07-03T03:28:48;2.92;;;2.45;;
27265;SDS011;14766;51.380;13.762;2022-07-03T03:31:16;2.20;;;2.00;;
27265;SDS011;14766;51.380;13.762;2022-07-03T03:33:47;3.33;;;2.20;;
27265;SDS011;14766;51.380;13.762;2022-07-03T03:36:17;3.55;;;2.30;;
27265;SDS011;14766;51.380;13.762;2022-07-03T03:38:46;2.58;;;2.38;;
27265;SDS011;14766;51.380;13.762;2022-07-03T03:41:14;3.65;;;2.40;;
27265;SDS011;14766;51.380;13.762;2022-07-03T03:43:43;2.35;;;1.98;;
27265;SDS011;14766;51.380;13.762;2022-07-03T03:46:12;2.88;;;2.35;;
27265;SDS011;14766;51.380;13.762;2022-07-03T03:48:41;3.78;;;2.50;;
27265;SDS011;14766;51.380;13.762;2022-07-03T03:51:10;2.38;;;2.17;;
27265;SDS011;14766;51.380;13.762;2022-07-03T03:53:37;3.75;;;2.50;;
27265;SDS011;14766;51.380;13.762;2022-07-03T03:56:07;2.78;;;2.50;;
27265;SDS011;14766;51.380;13.762;2022-07-03T03:58:38;2.50;;;2.30;;
27265;SDS011;14766;51.380;13.762;2022-07-03T04:01:07;2.40;;;2.20;;
27265;SDS011;14766;51.380;13.762;2022-07-03T04:03:38;3.90;;;2.70;;
27265;SDS011;14766;51.380;13.762;2022-07-03T04:06:07;2.35;;;2.15;;
27265;SDS011;14766;51.380;13.762;2022-07-03T04:08:34;3.20;;;2.30;;
27265;SDS011;14766;51.380;13.762;2022-07-03T04:11:03;3.67;;;2.30;;
27265;SDS011;14766;51.380;13.762;2022-07-03T04:13:30;2.45;;;2.25;;
27265;SDS011;14766;51.380;13.762;2022-07-03T04:15:57;2.25;;;2.05;;
27265;SDS011;14766;51.380;13.762;2022-07-03T04:18:24;2.30;;;2.10;;
27265;SDS011;14766;51.380;13.762;2022-07-03T04:20:59;2.42;;;2.20;;
27265;SDS011;14766;51.380;13.762;2022-07-03T04:23:26;2.25;;;2.10;;
27265;SDS011;14766;51.380;13.762;2022-07-03T04:25:53;2.88;;;1.92;;
27265;SDS011;14766;51.380;13.762;2022-07-03T04:28:22;2.47;;;2.28;;
27265;SDS011;14766;51.380;13.762;2022-07-03T04:30:49;2.30;;;2.10;;
27265;SDS011;14766;51.380;13.762;2022-07-03T04:33:16;2.40;;;2.13;;
27265;SDS011;14766;51.380;13.762;2022-07-03T04:35:43;2.30;;;2.05;;
27265;SDS011;14766;51.380;13.762;2022-07-03T04:38:11;3.10;;;1.92;;
27265;SDS011;14766;51.380;13.762;2022-07-03T04:40:38;2.10;;;1.90;;
27265;SDS011;14766;51.380;13.762;2022-07-03T04:43:05;2.50;;;2.08;;
27265;SDS011;14766;51.380;13.762;2022-07-03T04:45:35;2.17;;;1.90;;
27265;SDS011;14766;51.380;13.762;2022-07-03T04:48:02;3.00;;;2.10;;
27265;SDS011;14766;51.380;13.762;2022-07-03T04:50:30;2.83;;;1.90;;
27265;SDS011;14766;51.380;13.762;2022-07-03T04:52:57;2.25;;;2.00;;
27265;SDS011;14766;51.380;13.762;2022-07-03T04:55:25;1.85;;;1.75;;
27265;SDS011;14766;51.380;13.762;2022-07-03T04:57:52;1.98;;;1.73;;
27265;SDS011;14766;51.380;13.762;2022-07-03T05:00:19;2.30;;;2.10;;
27265;SDS011;14766;51.380;13.762;2022-07-03T05:02:46;1.70;;;1.60;;
27265;SDS011;14766;51.380;13.762;2022-07-03T05:05:13;2.55;;;1.95;;
27265;SDS011;14766;51.380;13.762;2022-07-03T05:07:40;2.17;;;1.80;;
27265;SDS011;14766;51.380;13.762;2022-07-03T05:10:08;2.40;;;2.03;;
27265;SDS011;14766;51.380;13.762;2022-07-03T05:12:36;2.25;;;2.00;;
27265;SDS011;14766;51.380;13.762;2022-07-03T05:15:07;2.58;;;2.00;;
27265;SDS011;14766;51.380;13.762;2022-07-03T05:17:35;2.55;;;2.35;;
27265;SDS011;14766;51.380;13.762;2022-07-03T05:20:03;2.53;;;2.30;;
27265;SDS011;14766;51.380;13.762;2022-07-03T05:22:56;2.13;;;1.67;;
27265;SDS011;14766;51.380;13.762;2022-07-03T05:27:53;2.70;;;2.28;;
27265;SDS011;14766;51.380;13.762;2022-07-03T05:30:21;2.15;;;1.95;;
27265;SDS011;14766;51.380;13.762;2022-07-03T05:32:50;2.75;;;2.15;;
27265;SDS011;14766;51.380;13.762;2022-07-03T05:35:17;2.10;;;1.90;;
27265;SDS011;14766;51.380;13.762;2022-07-03T05:37:45;2.15;;;1.95;;
27265;SDS011;14766;51.380;13.762;2022-07-03T05:40:12;2.30;;;2.10;;
27265;SDS011;14766;51.380;13.762;2022-07-03T05:42:39;2.47;;;2.28;;
27265;SDS011;14766;51.380;13.762;2022-07-03T05:45:07;2.05;;;1.85;;
27265;SDS011;14766;51.380;13.762;2022-07-03T05:47:40;2.22;;;2.00;;
27265;SDS011;14766;51.380;13.762;2022-07-03T05:50:07;2.42;;;2.10;;
27265;SDS011;14766;51.380;13.762;2022-07-03T05:52:34;2.10;;;1.83;;
27265;SDS011;14766;51.380;13.762;2022-07-03T05:55:02;1.85;;;1.65;;
27265;SDS011;14766;51.380;13.762;2022-07-03T05:57:31;2.35;;;2.10;;
27265;SDS011;14766;51.380;13.762;2022-07-03T05:59:59;6.57;;;2.10;;
27265;SDS011;14766;51.380;13.762;2022-07-03T06:02:27;2.10;;;1.90;;
27265;SDS011;14766;51.380;13.762;2022-07-03T06:04:54;2.42;;;2.05;;
27265;SDS011;14766;51.380;13.762;2022-07-03T06:07:21;3.40;;;2.35;;
27265;SDS011;14766;51.380;13.762;2022-07-03T06:09:48;2.85;;;2.17;;
27265;SDS011;14766;51.380;13.762;2022-07-03T06:12:15;3.45;;;2.20;;
27265;SDS011;14766;51.380;13.762;2022-07-03T06:14:42;2.65;;;2.10;;
27265;SDS011;14766;51.380;13.762;2022-07-03T06:17:09;2.90;;;2.20;;
27265;SDS011;14766;51.380;13.762;2022-07-03T06:19:36;2.47;;;2.15;;
27265;SDS011;14766;51.380;13.762;2022-07-03T06:22:03;2.58;;;2.15;;
27265;SDS011;14766;51.380;13.762;2022-07-03T06:24:31;2.15;;;1.95;;
27265;SDS011;14766;51.380;13.762;2022-07-03T06:26:58;2.75;;;2.45;;
27265;SDS011;14766;51.380;13.762;2022-07-03T06:29:26;2.45;;;2.22;;
27265;SDS011;14766;51.380;13.762;2022-07-03T06:31:54;3.10;;;2.40;;
27265;SDS011;14766;51.380;13.762;2022-07-03T06:34:22;2.47;;;2.28;;
27265;SDS011;14766;51.380;13.762;2022-07-03T06:36:50;2.95;;;2.10;;
27265;SDS011;14766;51.380;13.762;2022-07-03T06:39:17;2.30;;;2.10;;
27265;SDS011;14766;51.380;13.762;2022-07-03T06:41:44;2.35;;;2.15;;
27265;SDS011;14766;51.380;13.762;2022-07-03T06:44:11;3.15;;;2.30;;
27265;SDS011;14766;51.380;13.762;2022-07-03T06:46:38;3.28;;;2.35;;
27265;SDS011;14766;51.380;13.762;2022-07-03T06:49:05;4.80;;;2.40;;
27265;SDS011;14766;51.380;13.762;2022-07-03T06:51:34;2.95;;;2.17;;
27265;SDS011;14766;51.380;13.762;2022-07-03T06:54:02;2.90;;;2.03;;
27265;SDS011;14766;51.380;13.762;2022-07-03T06:56:29;3.70;;;2.13;;
27265;SDS011;14766;51.380;13.762;2022-07-03T06:58:56;3.03;;;1.95;;
27265;SDS011;14766;51.380;13.762;2022-07-03T07:01:25;2.72;;;2.15;;
27265;SDS011;14766;51.380;13.762;2022-07-03T07:03:53;2.47;;;2.28;;
27265;SDS011;14766;51.380;13.762;2022-07-03T07:06:20;3.33;;;2.13;;
27265;SDS011;14766;51.380;13.762;2022-07-03T07:08:47;3.90;;;2.30;;
27265;SDS011;14766;51.380;13.762;2022-07-03T07:11:15;2.20;;;2.00;;
27265;SDS011;14766;51.380;13.762;2022-07-03T07:13:42;3.28;;;2.30;;
27265;SDS011;14766;51.380;13.762;2022-07-03T07:16:10;3.40;;;2.08;;
27265;SDS011;14766;51.380;13.762;2022-07-03T07:18:42;2.17;;;2.08;;
27265;SDS011;14766;51.380;13.762;2022-07-03T07:21:10;2.13;;;1.90;;
27265;SDS011;14766;51.380;13.762;2022-07-03T07:23:38;2.25;;;2.05;;
27265;SDS011;14766;51.380;13.762;2022-07-03T07:26:05;2.40;;;2.20;;
27265;SDS011;14766;51.380;13.762;2022-07-03T07:28:34;3.55;;;1.92;;
27265;SDS011;14766;51.380;13.762;2022-07-03T07:31:01;3.20;;;2.10;;
27265;SDS011;14766;51.380;13.762;2022-07-03T07:33:29;2.33;;;2.13;;
27265;SDS011;14766;51.380;13.762;2022-07-03T07:35:56;3.17;;;2.28;;
27265;SDS011;14766;51.380;13.762;2022-07-03T07:38:23;2.05;;;1.85;;
27265;SDS011;14766;51.380;13.762;2022-07-03T07:40:51;2.42;;;1.65;;
27265;SDS011;14766;51.380;13.762;2022-07-03T07:43:19;2.10;;;2.00;;
27265;SDS011;14766;51.380;13.762;2022-07-03T07:45:46;2.40;;;1.98;;
27265;SDS011;14766;51.380;13.762;2022-07-03T07:48:14;1.95;;;1.85;;
27265;SDS011;14766;51.380;13.762;2022-07-03T07:50:41;2.22;;;2.03;;
27265;SDS011;14766;51.380;13.762;2022-07-03T07:53:09;2.20;;;2.00;;
27265;SDS011;14766;51.380;13.762;2022-07-03T07:55:36;2.65;;;1.85;;
27265;SDS011;14766;51.380;13.762;2022-07-03T07:58:03;1.98;;;1.77;;
27265;SDS011;14766;51.380;13.762;2022-07-03T08:00:30;2.22;;;2.03;;
27265;SDS011;14766;51.380;13.762;2022-07-03T08:02:57;2.00;;;1.80;;
27265;SDS011;14766;51.380;13.762;2022-07-03T08:05:43;4.68;;;2.13;;
27265;SDS011;14766;51.380;13.762;2022-07-03T08:08:12;1.70;;;1.60;;
27265;SDS011;14766;51.380;13.762;2022-07-03T08:10:46;1.80;;;1.70;;
27265;SDS011;14766;51.380;13.762;2022-07-03T08:13:18;2.03;;;1.83;;
27265;SDS011;14766;51.380;13.762;2022-07-03T08:15:46;2.60;;;1.70;;
27265;SDS011;14766;51.380;13.762;2022-07-03T08:18:14;2.08;;;1.88;;
27265;SDS011;14766;51.380;13.762;2022-07-03T08:20:41;1.92;;;1.73;;
27265;SDS011;14766;51.380;13.762;2022-07-03T08:23:08;2.10;;;1.90;;
27265;SDS011;14766;51.380;13.762;2022-07-03T08:25:35;2.08;;;1.88;;
27265;SDS011;14766;51.380;13.762;2022-07-03T08:28:03;1.70;;;1.60;;
27265;SDS011;14766;51.380;13.762;2022-07-03T08:30:30;3.88;;;1.90;;
27265;SDS011;14766;51.380;13.762;2022-07-03T08:32:58;1.80;;;1.70;;
27265;SDS011;14766;51.380;13.762;2022-07-03T08:35:26;1.70;;;1.60;;
27265;SDS011;14766;51.380;13.762;2022-07-03T08:37:54;1.55;;;1.45;;
27265;SDS011;14766;51.380;13.762;2022-07-03T08:40:22;1.60;;;1.50;;
27265;SDS011;14766;51.380;13.762;2022-07-03T08:42:53;1.45;;;1.33;;
27265;SDS011;14766;51.380;13.762;2022-07-03T08:45:22;1.77;;;1.67;;
27265;SDS011;14766;51.380;13.762;2022-07-03T08:47:52;2.50;;;1.52;;
27265;SDS011;14766;51.380;13.762;2022-07-03T08:50:21;1.67;;;1.58;;
27265;SDS011;14766;51.380;13.762;2022-07-03T08:52:49;1.80;;;1.70;;
27265;SDS011;14766;51.380;13.762;2022-07-03T08:55:17;1.80;;;1.50;;
27265;SDS011;14766;51.380;13.762;2022-07-03T08:57:45;1.60;;;1.50;;
27265;SDS011;14766;51.380;13.762;2022-07-03T09:00:14;2.03;;;1.50;;
27265;SDS011;14766;51.380;13.762;2022-07-03T09:02:44;1.58;;;1.48;;
27265;SDS011;14766;51.380;13.762;2022-07-03T09:05:13;1.85;;;1.52;;
27265;SDS011;14766;51.380;13.762;2022-07-03T09:07:42;2.00;;;1.58;;
27265;SDS011;14766;51.380;13.762;2022-07-03T09:10:11;1.50;;;1.27;;
27265;SDS011;14766;51.380;13.762;2022-07-03T09:12:41;2.10;;;1.42;;
27265;SDS011;14766;51.380;13.762;2022-07-03T09:15:10;1.40;;;1.27;;
27265;SDS011;14766;51.380;13.762;2022-07-03T09:17:38;1.48;;;1.38;;
27265;SDS011;14766;51.380;13.762;2022-07-03T09:20:05;1.40;;;1.30;;
27265;SDS011;14766;51.380;13.762;2022-07-03T09:22:36;1.60;;;1.50;;
27265;SDS011;14766;51.380;13.762;2022-07-03T09:25:06;1.50;;;1.40;;
27265;SDS011;14766;51.380;13.762;2022-07-03T09:27:48;1.40;;;1.30;;
27265;SDS011;14766;51.380;13.762;2022-07-03T09:30:18;1.40;;;1.30;;
27265;SDS011;14766;51.380;13.762;2022-07-03T09:32:46;1.63;;;1.52;;
27265;SDS011;14766;51.380;13.762;2022-07-03T09:35:25;1.70;;;1.60;;
27265;SDS011;14766;51.380;13.762;2022-07-03T09:37:56;1.48;;;1.38;;
27265;SDS011;14766;51.380;13.762;2022-07-03T09:40:26;1.42;;;1.33;;
27265;SDS011;14766;51.380;13.762;2022-07-03T09:42:57;2.20;;;1.30;;
27265;SDS011;14766;51.380;13.762;2022-07-03T09:45:25;1.83;;;1.35;;
27265;SDS011;14766;51.380;13.762;2022-07-03T09:47:52;2.35;;;1.50;;
27265;SDS011;14766;51.380;13.762;2022-07-03T09:50:41;2.95;;;1.30;;
27265;SDS011;14766;51.380;13.762;2022-07-03T09:53:08;2.53;;;1.70;;
27265;SDS011;14766;51.380;13.762;2022-07-03T09:55:36;1.40;;;1.30;;
27265;SDS011;14766;51.380;13.762;2022-07-03T09:58:04;1.50;;;1.30;;
27265;SDS011;14766;51.380;13.762;2022-07-03T10:00:32;1.95;;;1.30;;
27265;SDS011;14766;51.380;13.762;2022-07-03T10:03:04;1.30;;;1.20;;
27265;SDS011;14766;51.380;13.762;2022-07-03T10:05:35;1.63;;;1.52;;
27265;SDS011;14766;51.380;13.762;2022-07-03T10:08:05;1.90;;;1.70;;
27265;SDS011;14766;51.380;13.762;2022-07-03T10:10:34;3.45;;;1.30;;
27265;SDS011;14766;51.380;13.762;2022-07-03T10:13:03;1.42;;;1.30;;
27265;SDS011;14766;51.380;13.762;2022-07-03T10:15:32;2.85;;;1.27;;
27265;SDS011;14766;51.380;13.762;2022-07-03T10:18:13;1.50;;;1.30;;
27265;SDS011;14766;51.380;13.762;2022-07-03T10:20:45;1.50;;;1.17;;
27265;SDS011;14766;51.380;13.762;2022-07-03T10:23:17;1.45;;;1.30;;
27265;SDS011;14766;51.380;13.762;2022-07-03T10:25:47;1.30;;;1.20;;
27265;SDS011;14766;51.380;13.762;2022-07-03T10:28:15;1.40;;;1.20;;
27265;SDS011;14766;51.380;13.762;2022-07-03T10:30:45;1.88;;;1.30;;
27265;SDS011;14766;51.380;13.762;2022-07-03T10:33:16;1.52;;;1.42;;
27265;SDS011;14766;51.380;13.762;2022-07-03T10:35:48;1.33;;;1.23;;
27265;SDS011;14766;51.380;13.762;2022-07-03T10:38:30;1.40;;;1.10;;
27265;SDS011;14766;51.380;13.762;2022-07-03T10:41:04;1.40;;;1.30;;
27265;SDS011;14766;51.380;13.762;2022-07-03T10:44:12;1.40;;;1.30;;
27265;SDS011;14766;51.380;13.762;2022-07-03T10:46:58;1.33;;;1.20;;
27265;SDS011;14766;51.380;13.762;2022-07-03T10:49:33;1.58;;;1.48;;
27265;SDS011;14766;51.380;13.762;2022-07-03T10:52:01;1.38;;;1.27;;
27265;SDS011;14766;51.380;13.762;2022-07-03T10:54:34;1.90;;;1.70;;
27265;SDS011;14766;51.380;13.762;2022-07-03T10:57:07;1.42;;;1.33;;
27265;SDS011;14766;51.380;13.762;2022-07-03T11:18:24;1.40;;;1.20;;
27265;SDS011;14766;51.380;13.762;2022-07-03T11:23:55;1.33;;;1.23;;
27265;SDS011;14766;51.380;13.762;2022-07-03T11:26:29;1.50;;;1.40;;
27265;SDS011;14766;51.380;13.762;2022-07-03T11:28:56;1.45;;;1.30;;
27265;SDS011;14766;51.380;13.762;2022-07-03T11:31:23;1.35;;;1.25;;
27265;SDS011;14766;51.380;13.762;2022-07-03T11:41:29;1.83;;;1.42;;
27265;SDS011;14766;51.380;13.762;2022-07-03T11:44:04;1.20;;;1.10;;
27265;SDS011;14766;51.380;13.762;2022-07-03T11:46:33;1.55;;;1.40;;
27265;SDS011;14766;51.380;13.762;2022-07-03T11:49:05;1.25;;;1.15;;
27265;SDS011;14766;51.380;13.762;2022-07-03T11:51:33;1.70;;;1.38;;
27265;SDS011;14766;51.380;13.762;2022-07-03T11:54:02;1.13;;;1.08;;
27265;SDS011;14766;51.380;13.762;2022-07-03T11:56:30;1.30;;;1.00;;
27265;SDS011;14766;51.380;13.762;2022-07-03T11:58:59;1.00;;;1.00;;
27265;SDS011;14766;51.380;13.762;2022-07-03T12:01:30;1.20;;;1.10;;
27265;SDS011;14766;51.380;13.762;2022-07-03T12:04:02;1.77;;;1.23;;
27265;SDS011;14766;51.380;13.762;2022-07-03T12:06:38;1.20;;;1.10;;
27265;SDS011;14766;51.380;13.762;2022-07-03T12:19:50;1.02;;;0.93;;
27265;SDS011;14766;51.380;13.762;2022-07-03T12:22:30;1.10;;;1.00;;
27265;SDS011;14766;51.380;13.762;2022-07-03T12:25:04;1.25;;;0.98;;
27265;SDS011;14766;51.380;13.762;2022-07-03T12:27:41;1.42;;;1.00;;
27265;SDS011;14766;51.380;13.762;2022-07-03T12:30:11;1.20;;;1.10;;
27265;SDS011;14766;51.380;13.762;2022-07-03T12:32:42;2.22;;;1.55;;
27265;SDS011;14766;51.380;13.762;2022-07-03T12:35:12;1.08;;;1.08;;
27265;SDS011;14766;51.380;13.762;2022-07-03T12:37:40;1.85;;;1.13;;
27265;SDS011;14766;51.380;13.762;2022-07-03T12:40:09;1.30;;;1.02;;
27265;SDS011;14766;51.380;13.762;2022-07-03T12:42:44;1.30;;;1.20;;
27265;SDS011;14766;51.380;13.762;2022-07-03T12:45:13;1.55;;;1.00;;
27265;SDS011;14766;51.380;13.762;2022-07-03T12:47:43;1.15;;;0.93;;
27265;SDS011;14766;51.380;13.762;2022-07-03T12:50:10;0.80;;;0.80;;
27265;SDS011;14766;51.380;13.762;2022-07-03T12:52:54;0.95;;;0.93;;
27265;SDS011;14766;51.380;13.762;2022-07-03T12:55:23;1.65;;;0.90;;
27265;SDS011;14766;51.380;13.762;2022-07-03T13:01:01;1.40;;;1.00;;
27265;SDS011;14766;51.380;13.762;2022-07-03T13:03:34;0.98;;;0.98;;
27265;SDS011;14766;51.380;13.762;2022-07-03T13:06:13;0.93;;;0.90;;
27265;SDS011;14766;51.380;13.762;2022-07-03T13:08:58;1.10;;;1.00;;
27265;SDS011;14766;51.380;13.762;2022-07-03T13:16:45;1.05;;;0.98;;
27265;SDS011;14766;51.380;13.762;2022-07-03T13:19:14;1.70;;;1.00;;
27265;SDS011;14766;51.380;13.762;2022-07-03T13:21:43;2.08;;;1.10;;
27265;SDS011;14766;51.380;13.762;2022-07-03T13:24:13;1.20;;;1.10;;
27265;SDS011;14766;51.380;13.762;2022-07-03T13:26:42;1.40;;;1.02;;
27265;SDS011;14766;51.380;13.762;2022-07-03T13:29:14;0.90;;;0.90;;
27265;SDS011;14766;51.380;13.762;2022-07-03T13:31:42;1.15;;;1.05;;
27265;SDS011;14766;51.380;13.762;2022-07-03T13:34:10;1.20;;;1.10;;
27265;SDS011;14766;51.380;13.762;2022-07-03T13:36:37;1.10;;;1.05;;
27265;SDS011;14766;51.380;13.762;2022-07-03T13:39:04;1.23;;;1.08;;
27265;SDS011;14766;51.380;13.762;2022-07-03T13:41:34;1.20;;;1.10;;
27265;SDS011;14766;51.380;13.762;2022-07-03T13:44:02;1.20;;;1.10;;
27265;SDS011;14766;51.380;13.762;2022-07-03T13:46:30;1.08;;;0.98;;
27265;SDS011;14766;51.380;13.762;2022-07-03T13:48:59;0.90;;;0.90;;
27265;SDS011;14766;51.380;13.762;2022-07-03T13:51:26;1.15;;;1.10;;
27265;SDS011;14766;51.380;13.762;2022-07-03T13:53:53;1.40;;;1.30;;
27265;SDS011;14766;51.380;13.762;2022-07-03T13:56:20;1.00;;;1.00;;
27265;SDS011;14766;51.380;13.762;2022-07-03T13:58:48;0.90;;;0.90;;
27265;SDS011;14766;51.380;13.762;2022-07-03T14:01:20;1.00;;;0.90;;
27265;SDS011;14766;51.380;13.762;2022-07-03T14:03:48;1.55;;;1.10;;
27265;SDS011;14766;51.380;13.762;2022-07-03T14:06:15;1.00;;;1.00;;
27265;SDS011;14766;51.380;13.762;2022-07-03T14:08:43;0.90;;;0.90;;
27265;SDS011;14766;51.380;13.762;2022-07-03T14:11:10;1.20;;;1.10;;
27265;SDS011;14766;51.380;13.762;2022-07-03T14:13:37;1.38;;;1.27;;
27265;SDS011;14766;51.380;13.762;2022-07-03T14:16:05;1.05;;;0.90;;
27265;SDS011;14766;51.380;13.762;2022-07-03T14:18:33;2.35;;;1.10;;
27265;SDS011;14766;51.380;13.762;2022-07-03T14:21:02;1.38;;;1.27;;
27265;SDS011;14766;51.380;13.762;2022-07-03T14:23:30;1.02;;;0.93;;
27265;SDS011;14766;51.380;13.762;2022-07-03T14:25:59;0.90;;;0.90;;
27265;SDS011;14766;51.380;13.762;2022-07-03T14:28:27;1.10;;;1.00;;
27265;SDS011;14766;51.380;13.762;2022-07-03T14:31:16;1.25;;;1.05;;
27265;SDS011;14766;51.380;13.762;2022-07-03T14:34:02;0.75;;;0.75;;
27265;SDS011;14766;51.380;13.762;2022-07-03T14:36:30;1.08;;;0.93;;
27265;SDS011;14766;51.380;13.762;2022-07-03T14:39:10;1.05;;;0.95;;
27265;SDS011;14766;51.380;13.762;2022-07-03T14:41:40;1.13;;;0.80;;
27265;SDS011;14766;51.380;13.762;2022-07-03T14:44:09;1.15;;;0.93;;
27265;SDS011;14766;51.380;13.762;2022-07-03T14:46:36;1.00;;;0.90;;
27265;SDS011;14766;51.380;13.762;2022-07-03T14:49:03;0.93;;;0.90;;
27265;SDS011;14766;51.380;13.762;2022-07-03T14:51:32;1.10;;;1.00;;
27265;SDS011;14766;51.380;13.762;2022-07-03T14:53:59;0.60;;;0.60;;
27265;SDS011;14766;51.380;13.762;2022-07-03T14:56:26;1.00;;;0.80;;
27265;SDS011;14766;51.380;13.762;2022-07-03T14:58:56;1.10;;;0.88;;
27265;SDS011;14766;51.380;13.762;2022-07-03T15:01:31;0.98;;;0.98;;
27265;SDS011;14766;51.380;13.762;2022-07-03T15:04:00;0.70;;;0.70;;
27265;SDS011;14766;51.380;13.762;2022-07-03T15:06:28;0.80;;;0.80;;
27265;SDS011;14766;51.380;13.762;2022-07-03T15:08:58;1.40;;;1.15;;
27265;SDS011;14766;51.380;13.762;2022-07-03T15:11:32;1.35;;;1.13;;
27265;SDS011;14766;51.380;13.762;2022-07-03T15:14:22;1.40;;;1.30;;
27265;SDS011;14766;51.380;13.762;2022-07-03T15:16:51;2.80;;;1.48;;
27265;SDS011;14766;51.380;13.762;2022-07-03T15:19:21;2.17;;;1.27;;
27265;SDS011;14766;51.380;13.762;2022-07-03T15:21:51;1.30;;;1.15;;
27265;SDS011;14766;51.380;13.762;2022-07-03T15:24:18;1.48;;;1.38;;
27265;SDS011;14766;51.380;13.762;2022-07-03T15:26:52;1.77;;;1.67;;
27265;SDS011;14766;51.380;13.762;2022-07-03T15:29:20;1.92;;;1.73;;
27265;SDS011;14766;51.380;13.762;2022-07-03T15:31:47;2.15;;;1.80;;
27265;SDS011;14766;51.380;13.762;2022-07-03T15:34:16;3.45;;;1.80;;
27265;SDS011;14766;51.380;13.762;2022-07-03T15:36:50;1.95;;;1.80;;
27265;SDS011;14766;51.380;13.762;2022-07-03T15:39:30;1.85;;;1.52;;
27265;SDS011;14766;51.380;13.762;2022-07-03T15:42:13;3.05;;;1.60;;
27265;SDS011;14766;51.380;13.762;2022-07-03T15:45:06;1.40;;;1.30;;
27265;SDS011;14766;51.380;13.762;2022-07-03T15:55:42;1.20;;;1.10;;
27265;SDS011;14766;51.380;13.762;2022-07-03T15:58:11;1.20;;;0.90;;
27265;SDS011;14766;51.380;13.762;2022-07-03T16:00:42;0.90;;;0.90;;
27265;SDS011;14766;51.380;13.762;2022-07-03T16:03:32;0.90;;;0.90;;
27265;SDS011;14766;51.380;13.762;2022-07-03T16:06:04;1.15;;;1.05;;
27265;SDS011;14766;51.380;13.762;2022-07-03T16:08:32;1.38;;;1.10;;
27265;SDS011;14766;51.380;13.762;2022-07-03T16:11:00;1.42;;;0.80;;
27265;SDS011;14766;51.380;13.762;2022-07-03T16:13:28;1.00;;;0.90;;
27265;SDS011;14766;51.380;13.762;2022-07-03T16:15:56;2.10;;;0.90;;
27265;SDS011;14766;51.380;13.762;2022-07-03T16:18:29;1.08;;;0.95;;
27265;SDS011;14766;51.380;13.762;2022-07-03T16:20:59;2.10;;;0.82;;
27265;SDS011;14766;51.380;13.762;2022-07-03T16:23:29;1.15;;;1.00;;
27265;SDS011;14766;51.380;13.762;2022-07-03T16:25:59;1.23;;;1.13;;
27265;SDS011;14766;51.380;13.762;2022-07-03T16:28:28;1.58;;;1.30;;